Time;durP1;ratioP1;P1;durP2;ratioP2;P2;SDS_P1;SDS_P2;PMS_P1;PMS_P2;Temp;Humidity;BMP_temperature;BMP_pressure;BME280_temperature;BME280_humidity;BME280_pressure;Samples;Min_cycle;Max_cycle;Signal;HPM_P1;HPM_P2
2022/01/24 00:01:54;;;;;;;26.87;11.23;;;;;;;-3.13;72.86;101761.72;125352;1099;104169;-81
2022/01/24 00:04:26;;;;;;;26.82;10.90;;;;;;;-3.12;72.19;101760.95;125388;1099;104168;-81
2022/01/24 00:06:58;;;;;;;26.87;11.50;;;;;;;-3.12;72.59;101757.48;125306;1099;104249;-81
2022/01/24 00:09:29;;;;;;;24.77;10.90;;;;;;;-3.10;72.63;101764.63;125339;1099;104251;-82
2022/01/24 00:12:12;;;;;;;27.90;11.93;;;;;;;-3.08;72.65;101765.70;125387;1099;104319;-81
2022/01/24 00:17:39;;;;;;;24.33;10.17;;;;;;;-3.06;72.15;101768.43;125276;1099;104341;-81
2022/01/24 00:28:39;;;;;;;24.67;10.77;;;;;;;-3.03;72.58;101780.70;125868;1099;104181;-80
2022/01/24 00:31:11;;;;;;;27.23;11.10;;;;;;;-3.04;72.88;101787.48;126410;1099;104281;-81
2022/01/24 00:33:45;;;;;;;27.90;11.63;;;;;;;-3.04;72.09;101790.05;126332;1099;104137;-80
2022/01/24 00:36:16;;;;;;;27.75;11.33;;;;;;;-3.05;72.03;101795.95;126378;1098;104299;-81
2022/01/24 00:38:48;;;;;;;24.63;10.73;;;;;;;-3.06;72.05;101791.55;126374;1099;104188;-80
2022/01/24 00:41:20;;;;;;;23.30;10.80;;;;;;;-3.08;72.00;101787.91;126388;1099;104172;-80
2022/01/24 00:44:10;;;;;;;25.33;10.80;;;;;;;-3.07;72.70;101800.91;126400;1098;104188;-80
2022/01/24 00:46:50;;;;;;;25.83;11.53;;;;;;;-3.10;72.99;101792.87;126326;1099;104721;-81
2022/01/24 00:49:44;;;;;;;25.43;11.23;;;;;;;-3.10;72.07;101794.50;126306;1099;104149;-80
2022/01/24 00:55:07;;;;;;;24.50;9.33;;;;;;;-3.11;72.74;101785.00;126376;1099;104245;-80
2022/01/24 00:57:38;;;;;;;25.17;10.85;;;;;;;-3.12;72.30;101791.77;126320;1098;104239;-80
2022/01/24 01:00:12;;;;;;;25.90;10.83;;;;;;;-3.14;72.19;101792.36;126333;1099;104163;-81
2022/01/24 01:02:43;;;;;;;24.72;10.25;;;;;;;-3.13;72.36;101795.09;126385;1099;104224;-81
2022/01/24 01:05:31;;;;;;;23.80;10.37;;;;;;;-3.14;73.01;101787.23;126396;1099;104149;-80
2022/01/24 01:18:05;;;;;;;24.13;10.60;;;;;;;-3.15;72.19;101793.09;126369;1099;105554;-81
2022/01/24 01:19:26;;;;;;;23.67;10.20;;;;;;;-3.16;72.24;101805.03;126343;1099;104139;-80
2022/01/24 01:21:57;;;;;;;24.37;10.10;;;;;;;-3.17;72.19;101803.19;126420;1099;104143;-81
2022/01/24 01:24:31;;;;;;;23.87;10.23;;;;;;;-3.17;72.03;101808.33;126370;1099;104249;-81
2022/01/24 01:27:08;;;;;;;23.37;10.73;;;;;;;-3.16;72.15;101801.56;126353;1099;104188;-81
2022/01/24 01:29:50;;;;;;;24.67;10.87;;;;;;;-3.16;72.38;101798.99;126330;1099;104171;-81
2022/01/24 01:32:51;;;;;;;25.67;10.07;;;;;;;-3.17;71.47;101810.89;126410;1099;104252;-81
2022/01/24 01:35:39;;;;;;;24.50;10.07;;;;;;;-3.15;71.76;101805.93;126395;1099;104283;-81
2022/01/24 01:52:26;;;;;;;19.67;8.37;;;;;;;-3.29;70.90;101802.76;126399;1099;104329;-81
2022/01/24 01:55:11;;;;;;;21.17;9.00;;;;;;;-3.33;70.71;101800.58;126360;1099;104165;-81
2022/01/24 01:57:43;;;;;;;20.57;8.20;;;;;;;-3.38;71.32;101812.00;126345;1099;104220;-81
2022/01/24 02:00:16;;;;;;;23.50;8.83;;;;;;;-3.44;70.94;101817.34;126418;1099;104171;-81
2022/01/24 02:02:50;;;;;;;21.60;9.10;;;;;;;-3.45;70.54;101815.50;126448;1098;104134;-81
2022/01/24 02:05:22;;;;;;;23.47;8.57;;;;;;;-3.45;70.44;101822.30;126392;1099;104169;-81
2022/01/24 02:07:54;;;;;;;25.43;8.87;;;;;;;-3.45;71.40;101825.77;126331;1099;104155;-81
2022/01/24 02:10:28;;;;;;;24.70;8.37;;;;;;;-3.47;70.44;101831.49;126328;1098;104197;-81
2022/01/24 02:13:00;;;;;;;19.73;8.40;;;;;;;-3.47;70.94;101824.70;126394;1099;104155;-80
2022/01/24 02:15:41;;;;;;;20.73;8.60;;;;;;;-3.49;70.29;101822.69;126338;1099;104666;-81
2022/01/24 02:18:25;;;;;;;19.37;7.97;;;;;;;-3.50;70.31;101823.45;126355;1099;104312;-82
2022/01/24 02:21:13;;;;;;;22.70;9.13;;;;;;;-3.55;70.90;101828.06;126283;1099;104185;-81
2022/01/24 02:23:49;;;;;;;24.03;9.40;;;;;;;-3.55;70.95;101832.26;126362;1099;104207;-81
2022/01/24 02:26:22;;;;;;;22.80;8.57;;;;;;;-3.55;70.15;101843.45;126370;1099;104146;-81
2022/01/24 02:29:05;;;;;;;20.47;8.03;;;;;;;-3.56;70.78;101840.72;126370;1099;104396;-81
2022/01/24 02:31:48;;;;;;;24.23;9.00;;;;;;;-3.56;70.99;101845.84;126330;1099;104605;-81
2022/01/24 02:34:33;;;;;;;22.63;8.77;;;;;;;-3.56;70.61;101850.98;126315;1099;104223;-81
2022/01/24 02:37:11;;;;;;;20.93;8.40;;;;;;;-3.56;70.72;101843.28;126386;1099;104153;-81
2022/01/24 02:39:57;;;;;;;21.80;9.13;;;;;;;-3.57;70.79;101849.14;126394;1099;105327;-81
2022/01/24 02:48:24;;;;;;;22.37;8.63;;;;;;;-3.61;70.65;101856.49;126332;1099;104229;-81
2022/01/24 02:51:23;;;;;;;21.60;8.40;;;;;;;-3.61;70.80;101863.29;126350;1099;104172;-81
2022/01/24 02:54:00;;;;;;;18.43;7.50;;;;;;;-3.61;70.91;101871.89;126376;1099;104243;-82
2022/01/24 02:56:32;;;;;;;18.70;7.97;;;;;;;-3.62;70.28;101875.18;126420;1099;104248;-81
2022/01/24 02:59:03;;;;;;;19.43;8.00;;;;;;;-3.62;70.61;101881.97;126406;1099;104509;-81
2022/01/24 03:01:34;;;;;;;22.10;8.47;;;;;;;-3.62;70.79;101879.41;126329;1098;104143;-81
2022/01/24 03:04:06;;;;;;;23.90;8.30;;;;;;;-3.62;70.56;101874.28;126377;1099;104207;-81
2022/01/24 03:06:38;;;;;;;22.37;8.60;;;;;;;-3.62;70.84;101879.41;126392;1097;104143;-81
2022/01/24 03:09:11;;;;;;;22.13;8.90;;;;;;;-3.63;70.53;101875.95;126367;1099;104149;-81
2022/01/24 03:11:59;;;;;;;21.10;8.73;;;;;;;-3.63;70.62;101877.57;126372;1099;104201;-81
2022/01/24 03:14:33;;;;;;;22.23;9.90;;;;;;;-3.68;70.60;101887.31;126358;1099;104130;-81
2022/01/24 03:17:06;;;;;;;22.73;8.98;;;;;;;-3.71;71.17;101879.30;126389;1099;101835;-81
2022/01/24 03:19:39;;;;;;;23.07;10.27;;;;;;;-3.73;71.13;101888.44;126379;1099;104249;-81
2022/01/24 03:22:11;;;;;;;24.53;10.13;;;;;;;-3.74;70.65;101876.38;126438;1099;105464;-81
2022/01/24 03:24:43;;;;;;;25.03;10.93;;;;;;;-3.74;70.76;101884.08;126395;1099;104727;-80
2022/01/24 03:27:14;;;;;;;25.00;10.57;;;;;;;-3.75;70.55;101891.59;126340;1099;104178;-81
2022/01/24 03:29:46;;;;;;;23.83;10.07;;;;;;;-3.76;70.89;101888.09;126401;1099;104242;-81
2022/01/24 03:32:17;;;;;;;25.80;10.47;;;;;;;-3.74;71.40;101885.70;126307;1099;104188;-81
2022/01/24 03:34:48;;;;;;;24.30;10.53;;;;;;;-3.74;70.87;101891.77;126397;1099;104134;-80
2022/01/24 03:37:20;;;;;;;24.60;10.70;;;;;;;-3.75;71.38;101897.63;126393;1099;104240;-81
2022/01/24 03:39:51;;;;;;;26.87;12.03;;;;;;;-3.74;71.65;101899.47;126324;1099;104271;-81
2022/01/24 03:42:22;;;;;;;27.03;10.77;;;;;;;-3.77;71.43;101893.98;126401;1099;104197;-80
2022/01/24 03:44:58;;;;;;;26.20;11.37;;;;;;;-3.75;71.69;101904.42;126377;1099;104271;-80
2022/01/24 03:47:44;;;;;;;27.33;11.93;;;;;;;-3.77;71.31;101906.81;126453;1097;104152;-81
2022/01/24 03:50:17;;;;;;;25.07;11.43;;;;;;;-3.78;71.51;101910.09;126349;1099;104286;-81
2022/01/24 03:52:51;;;;;;;27.70;11.67;;;;;;;-3.80;71.75;101901.33;126316;1099;104168;-81
2022/01/24 03:55:27;;;;;;;29.20;11.40;;;;;;;-3.81;71.21;101905.52;126363;1099;104172;-82
2022/01/24 03:57:58;;;;;;;24.67;12.03;;;;;;;-3.81;71.12;101905.52;126305;1099;104191;-81
2022/01/24 04:00:30;;;;;;;26.20;12.05;;;;;;;-3.81;71.41;101909.74;126393;1099;104137;-81
2022/01/24 04:03:01;;;;;;;25.73;11.23;;;;;;;-3.83;71.82;101906.09;126350;1099;104114;-81
2022/01/24 04:05:39;;;;;;;23.27;10.33;;;;;;;-3.83;71.91;101900.97;126346;1099;104255;-81
2022/01/24 04:08:11;;;;;;;24.23;10.53;;;;;;;-3.82;71.63;101911.41;126390;1099;104150;-81
2022/01/24 04:10:45;;;;;;;24.30;11.13;;;;;;;-3.82;72.00;101913.97;126403;1098;104172;-82
2022/01/24 04:13:28;;;;;;;23.03;9.97;;;;;;;-3.82;72.24;101910.47;126369;1096;104162;-80
2022/01/24 04:16:23;;;;;;;28.70;11.97;;;;;;;-3.83;72.05;101911.23;126371;1099;104373;-81
2022/01/24 04:19:02;;;;;;;24.92;10.55;;;;;;;-3.86;72.20;101911.78;126365;1098;104165;-80
2022/01/24 04:21:37;;;;;;;25.10;10.63;;;;;;;-3.86;71.88;101926.27;126406;1099;104146;-81
2022/01/24 04:24:18;;;;;;;26.90;10.73;;;;;;;-3.87;71.66;101930.45;126350;1099;104245;-80
2022/01/24 04:26:54;;;;;;;28.23;10.70;;;;;;;-3.86;71.53;101923.70;126363;1099;104252;-80
2022/01/24 04:29:26;;;;;;;28.03;10.40;;;;;;;-3.88;71.98;101925.15;126358;1099;105181;-81
2022/01/24 04:31:58;;;;;;;23.97;9.83;;;;;;;-3.90;72.86;101924.97;126360;1099;104137;-82
2022/01/24 04:34:29;;;;;;;26.67;10.77;;;;;;;-3.90;72.06;101931.77;126354;1099;104143;-81
2022/01/24 04:37:01;;;;;;;28.77;11.73;;;;;;;-3.93;72.14;101931.41;126398;1099;104143;-81
2022/01/24 04:39:33;;;;;;;24.60;10.47;;;;;;;-3.93;72.65;101929.74;126418;1099;104182;-81
2022/01/24 04:42:11;;;;;;;30.83;11.07;;;;;;;-3.94;72.50;101927.94;126441;1099;104418;-81
2022/01/24 04:44:53;;;;;;;26.90;11.00;;;;;;;-3.93;72.50;101929.74;126271;1099;104142;-81
2022/01/24 04:47:29;;;;;;;27.57;11.33;;;;;;;-3.93;72.10;101926.28;126450;1099;104185;-81
2022/01/24 04:50:38;;;;;;;27.70;11.50;;;;;;;-3.94;73.11;101945.89;126353;1099;104152;-81
2022/01/24 04:53:26;;;;;;;27.80;10.93;;;;;;;-3.96;73.07;101939.64;126370;1099;105386;-81
2022/01/24 04:55:58;;;;;;;26.97;11.57;;;;;;;-3.98;73.36;101942.03;126401;1099;104134;-81
2022/01/24 04:58:30;;;;;;;29.33;11.47;;;;;;;-3.99;73.06;101942.79;126353;1099;104149;-81
2022/01/24 05:01:03;;;;;;;26.15;11.45;;;;;;;-4.03;73.31;101930.33;126376;1099;104274;-81
2022/01/24 05:03:37;;;;;;;28.70;11.80;;;;;;;-4.05;73.48;101939.51;126332;1099;104184;-81
2022/01/24 05:06:08;;;;;;;27.67;11.37;;;;;;;-4.04;73.62;101931.06;126232;1099;104245;-83
2022/01/24 05:08:40;;;;;;;31.17;12.03;;;;;;;-4.06;72.90;101935.11;126225;1099;104323;-83
2022/01/24 05:11:16;;;;;;;29.37;11.80;;;;;;;-4.07;72.76;101943.52;126123;1099;104245;-83
2022/01/24 05:25:05;;;;;;;31.33;13.10;;;;;;;-4.16;73.04;101945.94;125986;1098;104179;-83
2022/01/24 05:27:35;;;;;;;;;;;;;;;-4.15;73.63;101941.72;126112;1099;104264;-83
2022/01/24 05:30:09;;;;;;;29.53;11.97;;;;;;;-4.18;73.49;101942.27;126092;1099;104293;-83
2022/01/24 05:32:41;;;;;;;31.40;12.60;;;;;;;-4.20;73.10;101943.74;126102;1099;104249;-83
2022/01/24 05:35:13;;;;;;;30.93;12.73;;;;;;;-4.20;72.79;101948.87;126097;1099;104136;-82
2022/01/24 05:37:44;;;;;;;30.90;12.80;;;;;;;-4.19;72.92;101949.77;126086;1099;104255;-83
2022/01/24 05:40:16;;;;;;;33.53;14.37;;;;;;;-4.21;73.71;101947.03;126131;1099;104172;-82
2022/01/24 05:42:48;;;;;;;28.17;12.47;;;;;;;-4.23;73.41;101956.20;126060;1099;104220;-82
2022/01/24 05:45:20;;;;;;;32.37;13.27;;;;;;;-4.26;73.34;101948.15;126065;1099;104216;-82
2022/01/24 05:47:51;;;;;;;27.70;12.03;;;;;;;-4.24;73.57;101948.33;126177;1099;104198;-82
2022/01/24 05:50:22;;;;;;;29.27;12.50;;;;;;;-4.23;73.42;101957.86;126149;1099;104201;-82
2022/01/24 05:52:54;;;;;;;29.77;12.70;;;;;;;-4.23;73.70;101971.58;126139;1099;104604;-82
2022/01/24 05:55:26;;;;;;;30.10;12.57;;;;;;;-4.21;73.50;101961.50;126030;1099;104143;-82
2022/01/24 05:57:57;;;;;;;30.20;13.07;;;;;;;-4.21;73.47;101964.06;126101;1098;104219;-82
2022/01/24 06:00:29;;;;;;;31.70;14.40;;;;;;;-4.19;73.66;101967.72;126033;1099;104137;-82
2022/01/24 06:03:00;;;;;;;28.43;12.50;;;;;;;-4.17;73.72;101968.83;126215;1098;104136;-82
2022/01/24 06:05:32;;;;;;;29.63;12.37;;;;;;;-4.16;74.09;101962.95;126277;1099;104284;-82
2022/01/24 06:08:06;;;;;;;30.37;12.70;;;;;;;-4.15;73.62;101959.66;126264;1099;104142;-82
2022/01/24 06:10:39;;;;;;;;;;;;;;;-4.18;74.50;101973.02;126375;1098;104238;-82
2022/01/24 06:13:10;;;;;;;28.47;11.67;;;;;;;-4.15;73.47;101967.35;126349;1098;104412;-82
2022/01/24 06:15:44;;;;;;;29.07;12.33;;;;;;;-4.14;73.53;101976.89;126197;1099;105148;-81
2022/01/24 06:18:16;;;;;;;35.70;13.10;;;;;;;-4.11;73.48;101969.55;126169;1099;104341;-81
2022/01/24 06:20:48;;;;;;;28.30;11.80;;;;;;;-4.08;73.99;101979.23;125916;1099;102283;-81
2022/01/24 06:23:25;;;;;;;30.37;12.27;;;;;;;-4.05;73.30;101975.41;125941;1099;104286;-82
2022/01/24 06:25:58;;;;;;;26.30;11.73;;;;;;;-4.02;73.35;101983.46;125758;1099;104300;-81
2022/01/24 06:28:31;;;;;;;29.57;11.33;;;;;;;-3.98;73.83;101984.72;125914;1099;104163;-80
2022/01/24 06:31:02;;;;;;;26.60;10.47;;;;;;;-3.95;73.82;101986.74;126023;1099;103990;-80
2022/01/24 06:33:35;;;;;;;27.60;11.40;;;;;;;-3.90;73.78;101986.52;126032;1099;104159;-79
2022/01/24 06:36:09;;;;;;;29.00;12.27;;;;;;;-3.88;73.69;101984.14;126048;1099;104168;-78
2022/01/24 06:38:40;;;;;;;29.33;11.30;;;;;;;-3.87;72.89;101999.70;126113;1099;104271;-79
2022/01/24 06:41:19;;;;;;;27.90;11.30;;;;;;;-3.84;72.82;101996.59;125985;1099;104165;-80
2022/01/24 06:43:53;;;;;;;27.80;11.30;;;;;;;-3.80;72.51;101988.53;126128;1098;104156;-81
2022/01/24 06:46:24;;;;;;;27.13;10.85;;;;;;;-3.80;72.83;101985.97;125979;1099;104185;-80
2022/01/24 06:49:01;;;;;;;27.73;10.97;;;;;;;-3.80;72.96;101986.88;125913;1099;103459;-81
2022/01/24 06:51:45;;;;;;;29.33;11.77;;;;;;;-3.80;72.54;101984.31;125155;1099;104242;-81
2022/01/24 06:54:17;;;;;;;25.63;10.07;;;;;;;-3.78;72.78;101988.72;125041;1099;104334;-80
2022/01/24 06:56:48;;;;;;;26.53;11.17;;;;;;;-3.79;72.23;101990.34;125271;1099;104233;-81
2022/01/24 06:59:22;;;;;;;23.93;10.20;;;;;;;-3.79;72.11;101995.47;125178;1099;103001;-80
2022/01/24 07:01:56;;;;;;;22.90;8.93;;;;;;;-3.78;71.48;102002.45;125351;1099;104172;-80
2022/01/24 07:04:30;;;;;;;22.45;8.68;;;;;;;-3.73;72.09;102002.98;125251;1102;104168;-80
2022/01/24 07:07:02;;;;;;;22.80;8.93;;;;;;;-3.69;72.27;101994.92;125096;1102;104255;-82
2022/01/24 07:09:34;;;;;;;25.53;9.83;;;;;;;-3.66;71.29;101991.05;124999;1102;102506;-83
2022/01/24 07:12:10;;;;;;;23.73;8.83;;;;;;;-3.59;71.12;101990.09;125069;1102;102155;-81
2022/01/24 07:14:46;;;;;;;26.47;9.60;;;;;;;-3.51;71.20;101975.59;125086;1102;104304;-82
2022/01/24 07:17:31;;;;;;;23.87;9.57;;;;;;;-3.50;70.11;101986.03;125088;1102;104291;-81
2022/01/24 07:20:10;;;;;;;23.80;9.93;;;;;;;-3.42;70.84;101989.48;125173;1102;104204;-86
2022/01/24 07:22:50;;;;;;;23.90;9.70;;;;;;;-3.33;70.88;101989.64;125272;1099;104185;-82
2022/01/24 07:25:25;;;;;;;25.20;10.17;;;;;;;-3.29;70.56;101987.59;125176;1099;104214;-82
2022/01/24 07:27:58;;;;;;;23.50;9.73;;;;;;;-3.16;70.05;102018.15;125205;1099;104247;-82
2022/01/24 07:30:33;;;;;;;21.97;9.18;;;;;;;-3.09;70.02;101996.64;125076;1099;104214;-84
2022/01/24 07:33:08;;;;;;;20.87;8.33;;;;;;;-3.14;69.42;102001.25;125090;1099;104175;-81
2022/01/24 07:35:47;;;;;;;22.63;8.93;;;;;;;-3.10;69.24;102002.50;125349;1099;104283;-82
2022/01/24 07:38:20;;;;;;;23.83;8.63;;;;;;;-3.02;71.00;102001.75;126197;1099;110008;-83
2022/01/24 07:40:55;;;;;;;22.03;7.97;;;;;;;-2.99;68.22;102003.73;125940;1099;104290;-81
2022/01/24 07:43:31;;;;;;;20.20;7.70;;;;;;;-3.01;68.40;102000.09;125823;1099;104255;-82
2022/01/24 07:46:11;;;;;;;16.40;6.67;;;;;;;-3.10;68.82;101999.94;125977;1099;104165;-82
2022/01/24 07:48:45;;;;;;;18.90;7.53;;;;;;;-3.10;68.28;102016.28;126214;1099;102775;-81
2022/01/24 07:51:33;;;;;;;18.97;7.67;;;;;;;-3.05;69.24;102011.67;126126;1099;104255;-82
2022/01/24 07:54:06;;;;;;;17.97;6.10;;;;;;;-3.03;67.31;101999.91;126102;1099;104137;-82
2022/01/24 07:56:51;;;;;;;;;;;;;;;;;;;;;
2022/01/24 07:59:26;;;;;;;17.77;6.50;;;;;;;-3.08;67.38;102022.50;126154;1099;108124;-83
2022/01/24 08:02:32;;;;;;;17.93;6.70;;;;;;;-3.05;67.54;102042.49;125930;1099;104226;-83
2022/01/24 08:05:43;;;;;;;22.13;6.97;;;;;;;-3.03;65.90;102028.16;126019;1099;104269;-82
2022/01/24 08:08:23;;;;;;;18.00;6.97;;;;;;;-3.02;66.94;102044.48;126000;1099;104223;-80
2022/01/24 08:11:04;;;;;;;15.17;6.77;;;;;;;-3.00;66.71;102037.88;126074;1099;104293;-83
2022/01/24 08:13:55;;;;;;;19.83;6.47;;;;;;;-2.97;66.54;102040.80;126009;1099;104354;-82
2022/01/24 08:16:40;;;;;;;20.10;7.30;;;;;;;-2.97;66.56;102054.55;126223;1099;104172;-83
2022/01/24 08:19:38;;;;;;;15.67;6.63;;;;;;;-2.97;66.04;102054.55;126153;1099;104220;-82
2022/01/24 08:22:14;;;;;;;19.27;7.37;;;;;;;-2.93;66.72;102051.60;125989;1099;104162;-83
2022/01/24 08:24:57;;;;;;;18.97;6.93;;;;;;;-2.87;66.20;102035.05;126054;1099;103329;-84
2022/01/24 08:27:31;;;;;;;17.43;7.10;;;;;;;-2.91;66.08;102044.98;126086;1099;101850;-83
2022/01/24 08:30:10;;;;;;;16.17;6.10;;;;;;;-2.96;65.13;102050.31;126012;1099;101906;-81
2022/01/24 08:32:46;;;;;;;17.43;7.07;;;;;;;-2.99;66.26;102050.91;125987;1099;104351;-80
2022/01/24 08:35:22;;;;;;;12.50;4.60;;;;;;;-3.01;65.55;102054.92;125950;1099;104159;-82
2022/01/24 08:38:04;;;;;;;;;;;;;;;-2.97;66.48;102054.55;126056;1099;102005;-81
2022/01/24 08:40:51;;;;;;;17.70;6.33;;;;;;;-2.97;65.82;102049.41;125882;1099;104178;-82
2022/01/24 08:43:49;;;;;;;17.20;6.80;;;;;;;-2.95;66.41;102036.74;126043;1099;104264;-82
2022/01/24 08:46:22;;;;;;;16.10;6.00;;;;;;;-2.90;65.91;102051.95;126143;1098;104242;-83
2022/01/24 08:49:18;;;;;;;12.97;4.50;;;;;;;-2.91;64.92;102056.92;125446;1100;104168;-82
2022/01/24 08:52:00;;;;;;;16.23;6.67;;;;;;;-2.89;65.82;102064.03;126113;1099;104146;-83
2022/01/24 08:54:37;;;;;;;16.67;6.60;;;;;;;-2.85;65.08;102054.11;126059;1099;104159;-82
2022/01/24 08:57:21;;;;;;;12.63;5.60;;;;;;;-2.81;65.56;102062.34;126072;1099;104194;-82
2022/01/24 08:59:56;;;;;;;12.73;5.53;;;;;;;-2.74;65.48;102048.56;126042;1097;104088;-83
2022/01/24 09:02:35;;;;;;;16.00;5.97;;;;;;;-2.72;64.96;102044.50;126173;1099;104130;-82
2022/01/24 09:05:12;;;;;;;12.87;5.47;;;;;;;-2.75;64.41;102049.29;125984;1099;104293;-82
2022/01/24 09:07:55;;;;;;;11.07;5.03;;;;;;;-2.76;64.11;102048.39;126134;1099;102180;-82
2022/01/24 09:10:40;;;;;;;16.17;5.60;;;;;;;-2.84;65.37;102036.30;126170;1099;104143;-84
2022/01/24 09:13:40;;;;;;;15.53;6.43;;;;;;;-2.77;65.25;102043.08;126191;1099;104188;-83
2022/01/24 09:16:16;;;;;;;16.63;6.20;;;;;;;-2.66;64.66;102063.19;125918;1099;104399;-84
2022/01/24 09:19:06;;;;;;;18.43;6.50;;;;;;;-2.66;65.50;102052.91;126146;1099;104666;-84
2022/01/24 09:21:44;;;;;;;14.57;5.93;;;;;;;-2.60;64.78;102045.89;126158;1099;104229;-82
2022/01/24 09:24:26;;;;;;;16.20;6.30;;;;;;;-2.57;65.42;102037.59;126267;1099;104136;-82
2022/01/24 09:27:17;;;;;;;15.07;5.77;;;;;;;-2.51;64.43;102038.28;126249;1099;104193;-83
2022/01/24 09:29:59;;;;;;;16.77;6.10;;;;;;;-2.47;64.93;102040.46;126289;1099;101775;-83
2022/01/24 09:32:39;;;;;;;17.07;6.60;;;;;;;-2.44;64.07;102033.09;126295;1099;104201;-82
2022/01/24 09:35:22;;;;;;;11.17;5.00;;;;;;;-2.38;63.44;102022.59;125352;1099;104386;-82
2022/01/24 09:37:58;;;;;;;14.47;6.13;;;;;;;-2.39;63.69;102015.61;126104;1099;104274;-81
2022/01/24 09:40:37;;;;;;;18.03;6.30;;;;;;;-2.38;65.22;102022.59;126061;1099;104293;-82
2022/01/24 09:43:10;;;;;;;13.00;6.13;;;;;;;-2.35;64.55;102018.70;126144;1099;104143;-82
2022/01/24 09:45:45;;;;;;;13.30;5.83;;;;;;;-2.30;64.93;102020.88;126070;1099;104281;-82
2022/01/24 09:48:25;;;;;;;15.43;6.40;;;;;;;-2.25;64.10;102018.05;126188;1099;104277;-81
2022/01/24 09:51:08;;;;;;;16.70;6.20;;;;;;;-2.19;64.38;102016.16;126202;1099;102794;-83
2022/01/24 09:53:54;;;;;;;15.37;5.77;;;;;;;-2.23;64.79;102010.51;126338;1099;104139;-83
2022/01/24 09:56:34;;;;;;;15.23;6.00;;;;;;;-2.26;63.72;102010.17;126079;1100;104355;-82
2022/01/24 09:59:23;;;;;;;19.00;6.43;;;;;;;-2.21;63.66;102006.47;126120;1099;104284;-82
2022/01/24 10:02:15;;;;;;;15.07;6.00;;;;;;;-2.18;64.46;101999.09;125974;1097;107010;-83
2022/01/24 10:05:18;;;;;;;13.87;5.63;;;;;;;-2.09;64.02;101991.45;126271;1099;104171;-82
2022/01/24 10:08:02;;;;;;;12.63;5.73;;;;;;;-2.10;63.34;101987.05;125959;1099;104204;-83
2022/01/24 10:10:45;;;;;;;14.53;5.53;;;;;;;-2.10;64.07;101974.19;126017;1097;104221;-82
2022/01/24 10:16:31;;;;;;;13.57;6.37;;;;;;;-2.10;63.47;101984.48;126089;1099;104229;-85
2022/01/24 10:19:15;;;;;;;11.33;5.70;;;;;;;-2.10;64.18;101981.91;125303;1099;104265;-86
2022/01/24 10:22:00;;;;;;;17.97;6.37;;;;;;;-2.09;64.40;101974.36;125883;1099;104150;-85
2022/01/24 10:24:56;;;;;;;;;;;;;;;;;;;;;
2022/01/24 10:27:32;;;;;;;16.70;6.27;;;;;;;-1.88;64.55;101974.91;126194;1099;104187;-85
2022/01/24 10:30:15;;;;;;;17.03;6.47;;;;;;;-1.96;64.47;101950.91;125287;1099;104188;-85
2022/01/24 10:33:00;;;;;;;14.85;6.53;;;;;;;-1.93;63.80;101969.25;125887;1099;102377;-84
2022/01/24 10:35:45;;;;;;;16.73;6.47;;;;;;;-1.96;63.62;101961.20;126040;1099;104264;-84
2022/01/24 10:38:39;;;;;;;18.70;6.97;;;;;;;-1.91;64.55;101954.88;126090;1099;104235;-82
2022/01/24 10:41:20;;;;;;;18.60;6.83;;;;;;;-1.91;63.89;101954.88;125981;1099;104179;-83
2022/01/24 10:43:56;;;;;;;15.40;6.60;;;;;;;-1.94;63.29;101944.27;126082;1099;105311;-83
2022/01/24 10:46:29;;;;;;;15.30;6.63;;;;;;;-1.92;64.15;101940.18;126252;1099;104150;-82
2022/01/24 10:49:13;;;;;;;14.97;6.07;;;;;;;-1.93;64.11;101951.24;126244;1099;104238;-84
2022/01/24 10:51:56;;;;;;;14.80;6.30;;;;;;;-1.84;64.47;101944.52;126236;1099;104708;-82
2022/01/24 10:54:31;;;;;;;17.85;6.45;;;;;;;-1.82;63.57;101948.16;126154;1099;104140;-82
2022/01/24 10:57:01;;;;;;;;;;;;;;;-1.83;62.90;101948.91;126295;1099;104207;-81
2022/01/24 10:59:34;;;;;;;16.93;6.03;;;;;;;-1.84;63.91;101935.87;126017;1099;104198;-81
2022/01/24 11:02:07;;;;;;;15.93;6.13;;;;;;;-1.82;62.98;101931.83;125969;1098;104139;-82
2022/01/24 11:04:44;;;;;;;15.88;6.15;;;;;;;-1.86;63.16;101945.09;125934;1099;104219;-83
2022/01/24 11:07:25;;;;;;;13.73;5.57;;;;;;;-1.86;63.21;101943.42;125881;1098;104166;-81
2022/01/24 11:10:07;;;;;;;17.20;6.57;;;;;;;-1.78;62.75;101944.25;125772;1099;104280;-83
2022/01/24 11:12:44;;;;;;;18.33;7.47;;;;;;;-1.69;63.50;101944.34;125808;1099;104219;-83
2022/01/24 11:15:18;;;;;;;16.03;6.13;;;;;;;-1.58;63.54;101937.77;125866;1099;104258;-82
2022/01/24 11:18:00;;;;;;;13.27;5.73;;;;;;;-1.52;63.43;101939.34;125901;1099;104274;-81
2022/01/24 11:20:41;;;;;;;16.77;6.40;;;;;;;-1.53;62.67;101941.75;126058;1098;104290;-82
2022/01/24 11:23:21;;;;;;;14.53;5.87;;;;;;;-1.54;62.57;101943.42;125910;1099;104114;-82
2022/01/24 11:25:59;;;;;;;15.83;6.13;;;;;;;-1.57;63.62;101932.80;125824;1099;104216;-81
2022/01/24 11:28:41;;;;;;;14.63;6.17;;;;;;;-1.55;63.22;101932.95;126086;1099;104242;-83
2022/01/24 11:31:27;;;;;;;14.53;6.10;;;;;;;-1.48;62.65;101937.98;125792;1099;104175;-82
2022/01/24 11:34:30;;;;;;;13.90;6.17;;;;;;;-1.50;62.78;101930.10;125764;1099;119985;-83
2022/01/24 11:37:03;;;;;;;17.97;6.90;;;;;;;-1.56;62.43;101937.17;125788;1099;104230;-82
2022/01/24 11:39:54;;;;;;;15.63;6.63;;;;;;;-1.49;63.29;101936.19;125729;1099;104258;-83
2022/01/24 11:42:36;;;;;;;14.70;6.33;;;;;;;-1.39;63.39;101932.92;125990;1099;104143;-83
2022/01/24 11:45:23;;;;;;;15.97;6.07;;;;;;;-1.39;62.29;101935.49;125991;1099;104150;-84
2022/01/24 11:48:17;;;;;;;14.47;6.40;;;;;;;-1.40;63.06;101936.23;126071;1098;104156;-87
2022/01/24 11:51:06;;;;;;;19.67;7.57;;;;;;;-1.40;63.33;101932.02;125998;1099;104285;-83
2022/01/24 11:53:54;;;;;;;18.13;6.77;;;;;;;-1.35;62.97;101929.94;125974;1099;104160;-83
2022/01/24 11:56:35;;;;;;;18.70;8.10;;;;;;;-1.25;63.76;101926.66;126004;1098;104214;-84
2022/01/24 11:59:35;;;;;;;20.83;7.37;;;;;;;-1.19;62.88;101924.73;126010;1099;104188;-85
2022/01/24 12:02:19;;;;;;;19.37;7.10;;;;;;;-1.19;61.63;101922.16;126212;1099;104319;-82
2022/01/24 12:04:59;;;;;;;17.67;7.28;;;;;;;-1.28;61.51;101920.44;126134;1099;108177;-81
2022/01/24 12:07:45;;;;;;;19.17;7.77;;;;;;;-1.31;62.11;101903.73;126040;1099;104255;-82
2022/01/24 12:10:41;;;;;;;20.67;7.77;;;;;;;-1.32;61.97;101904.50;126084;1099;104198;-82
2022/01/24 12:13:25;;;;;;;20.13;7.67;;;;;;;-1.41;60.97;101916.41;126119;1099;102811;-82
2022/01/24 12:16:10;;;;;;;17.70;7.00;;;;;;;-1.46;62.22;101905.62;126035;1099;102352;-81
2022/01/24 12:19:18;;;;;;;18.70;7.97;;;;;;;-1.42;62.10;101911.99;125856;1099;104313;-83
2022/01/24 12:22:12;;;;;;;18.90;7.07;;;;;;;-1.45;61.55;101915.14;126118;1099;104040;-81
2022/01/24 12:25:13;;;;;;;16.87;6.40;;;;;;;-1.42;60.96;101918.05;126128;1099;104178;-81
2022/01/24 12:28:20;;;;;;;20.13;7.70;;;;;;;-1.41;61.27;101913.83;126319;1099;104182;-80
2022/01/24 12:31:23;;;;;;;19.00;7.13;;;;;;;-1.39;61.97;101896.87;126119;1099;104194;-82
2022/01/24 12:37:53;;;;;;;;;;;;;;;;;;;;;
2022/01/24 12:40:41;;;;;;;22.22;8.20;;;;;;;-1.43;61.16;101916.24;125260;1102;104258;-82
2022/01/24 12:43:50;;;;;;;19.00;7.93;;;;;;;-1.41;61.42;101907.01;125106;1099;104242;-81
2022/01/24 12:46:32;;;;;;;17.43;7.03;;;;;;;-1.47;60.52;101917.55;125241;1099;117917;-84
2022/01/24 12:49:14;;;;;;;16.17;6.67;;;;;;;-1.63;59.84;101903.81;125145;1099;104294;-83
2022/01/24 12:51:51;;;;;;;18.90;7.77;;;;;;;-1.54;61.48;101920.25;125256;1102;104181;-84
2022/01/24 12:54:55;;;;;;;17.77;7.03;;;;;;;-1.60;59.61;101926.41;125207;1101;104287;-84
2022/01/24 12:57:41;;;;;;;17.50;7.37;;;;;;;-1.61;60.26;101932.30;125144;1102;104406;-83
2022/01/24 13:00:20;;;;;;;18.60;7.07;;;;;;;-1.64;61.18;101943.16;125233;1099;104226;-81